Estación Meteorológica Peña el Pijo (Robertgarden) [ 11/20/18 00:55:27 CET ]

Fecha Hora Presion(HPa) Temp (°C) Humedad % Rocio (°C) Viento ( m/s) Direccion Lluvia 1Hora(mm) Lluvia 24H(mm) LLuvia Total(mm)
2018-Nov-06 01:01:43 999.400 5.8 74 1.5 1.9 N   1.55 96.34
2018-Nov-06 02:01:42 1000.400 5.9 74 1.6       1.55 96.34
2018-Nov-06 03:05:10 1000.800 5.6 74 1.3       1.55 96.34
2018-Nov-06 04:01:29 1001.100 5.6 73 1.1       1.55 96.34
2018-Nov-06 05:01:34 1001.000 5.4 72 0.8       1.55 96.34
2018-Nov-06 06:01:21 1001.800 5.4 71 0.8 2.8 WNW   1.55 96.34
2018-Nov-06 07:01:24 1001.900 5.2 71 0.4       1.55 96.34
2018-Nov-06 08:01:26 1002.700 4.7 71 -0.1       1.55 96.34
2018-Nov-06 09:01:44 1003.900 5.8 71 1.0       1.55 96.34
2018-Nov-06 10:01:43 1004.400 6.5 70 1.4       1.55 96.34
2018-Nov-06 11:01:49 1004.800 7.3 68 1.8       1.55 96.34
2018-Nov-06 12:01:50 1005.000 9.1 60 1.8       1.55 96.34
2018-Nov-06 13:01:45 1004.800 9.6 58 1.7       1.55 96.34
2018-Nov-06 14:01:44 1004.300 11.6 52 2.0 1.0 NW   1.55 96.34
2018-Nov-06 15:01:48 1004.100 12.1 51 2.2       1.55 96.34
2018-Nov-06 16:01:48 1004.400 9.6 54 0.7 2.3 N   1.55 96.34
2018-Nov-06 17:01:43 1004.700 9.5 56 1.1 2.5 NNW   1.55 96.34
2018-Nov-06 18:01:40 1004.500 7.3 63 0.7 0.7 NNW   1.03 96.34
2018-Nov-06 19:01:40 1005.300 6.4 66 0.5 1.8 NW     96.34
2018-Nov-06 20:01:40 1005.000 5.9 68 0.5         96.34
2018-Nov-06 21:01:58 1005.200 5.3 70 0.3         96.34
2018-Nov-06 22:01:44 1005.000 5.1 68 -0.3         96.34
2018-Nov-06 23:01:46 1005.000 3.5 70 -1.4         96.34

Temperatura Máxima:12°    Temperatura Mínima:
Presión Máxima:1005.300 Hpa    Presión Mínima:999.400 Hpa


Volver